Time;durP1;ratioP1;P1;durP2;ratioP2;P2;SDS_P1;SDS_P2;PMS_P1;PMS_P2;Temp;Humidity;BMP_temperature;BMP_pressure;BME280_temperature;BME280_humidity;BME280_pressure;Samples;Min_cycle;Max_cycle;Signal;HPM_P1;HPM_P2
2021/11/22 00:00:24;;;;;;;11.43;9.63;;;;;;;6.31;78.18;100206.53;5091070;28;20410;-80
2021/11/22 00:02:52;;;;;;;11.77;9.40;;;;;;;6.31;78.29;100209.22;5091023;28;20394;-80
2021/11/22 00:05:17;;;;;;;12.18;9.75;;;;;;;6.30;77.98;100212.97;5087221;28;20441;-80
2021/11/22 00:07:43;;;;;;;12.90;9.50;;;;;;;6.29;78.02;100211.31;5094744;28;20433;-80
2021/11/22 00:10:08;;;;;;;11.02;9.20;;;;;;;6.28;78.00;100223.13;5094415;28;20409;-80
2021/11/22 00:12:34;;;;;;;14.50;10.30;;;;;;;6.28;77.87;100222.31;5094670;28;20463;-80
2021/11/22 00:15:03;;;;;;;12.80;9.70;;;;;;;6.30;78.23;100217.50;5094772;28;20378;-80
2021/11/22 00:17:30;;;;;;;14.70;10.13;;;;;;;6.32;78.02;100218.97;5094360;28;20441;-81
2021/11/22 00:19:55;;;;;;;13.75;10.48;;;;;;;6.35;78.10;100218.50;5093547;28;20765;-80
2021/11/22 00:22:20;;;;;;;14.87;10.90;;;;;;;6.36;78.40;100225.53;5094449;28;20386;-80
2021/11/22 00:24:46;;;;;;;14.37;11.07;;;;;;;6.31;78.46;100220.00;5094450;28;20405;-81
2021/11/22 00:27:11;;;;;;;19.13;12.85;;;;;;;6.28;78.59;100223.13;5092770;28;20403;-80
2021/11/22 00:29:36;;;;;;;18.23;13.73;;;;;;;6.30;79.55;100229.09;5094479;28;20836;-80
2021/11/22 00:32:04;;;;;;;20.30;14.70;;;;;;;6.28;79.32;100231.22;5094425;28;20386;-80
2021/11/22 00:34:30;;;;;;;15.57;13.65;;;;;;;6.29;79.94;100232.84;5091656;28;20885;-80
2021/11/22 00:36:56;;;;;;;18.50;14.25;;;;;;;6.28;80.28;100236.59;5093868;28;20402;-80
2021/11/22 00:39:21;;;;;;;20.90;15.33;;;;;;;6.30;80.79;100242.56;5075846;28;20386;-80
2021/11/22 00:41:46;;;;;;;21.07;14.73;;;;;;;6.32;80.24;100242.34;5094220;28;20427;-80
2021/11/22 00:44:12;;;;;;;20.85;15.77;;;;;;;6.31;81.02;100244.22;5093155;28;20393;-80
2021/11/22 00:46:37;;;;;;;22.43;16.53;;;;;;;6.32;81.43;100247.75;5092576;28;20914;-80
2021/11/22 00:49:03;;;;;;;20.93;15.70;;;;;;;6.31;81.25;100241.53;5093961;28;20418;-80
2021/11/22 00:51:28;;;;;;;20.52;15.88;;;;;;;6.31;81.69;100241.53;5076055;28;20386;-80
2021/11/22 00:53:54;;;;;;;19.60;14.87;;;;;;;6.33;81.94;100246.66;5093702;28;20464;-80
2021/11/22 00:56:21;;;;;;;19.77;15.77;;;;;;;6.33;82.04;100246.66;5093855;28;20390;-80
2021/11/22 00:58:46;;;;;;;21.23;16.00;;;;;;;6.32;82.14;100253.94;5093230;28;20402;-81
2021/11/22 01:01:12;;;;;;;22.93;17.73;;;;;;;6.32;82.75;100250.44;5086948;28;20398;-80
2021/11/22 01:03:37;;;;;;;21.83;16.53;;;;;;;6.27;83.08;100251.09;5093397;28;20402;-80
2021/11/22 01:06:02;;;;;;;22.50;16.50;;;;;;;6.26;83.60;100254.81;5075573;28;20386;-80
2021/11/22 01:08:28;;;;;;;22.97;18.47;;;;;;;6.26;83.52;100261.03;5091637;28;20412;-80
2021/11/22 01:10:53;;;;;;;22.58;16.10;;;;;;;6.23;84.16;100261.47;5093810;28;20382;-80
2021/11/22 01:13:19;;;;;;;23.13;17.27;;;;;;;6.18;84.33;100265.88;5093038;28;20398;-80
2021/11/22 01:15:44;;;;;;;22.47;16.37;;;;;;;6.18;84.27;100273.94;5091455;28;20467;-80
2021/11/22 01:18:09;;;;;;;21.55;16.58;;;;;;;6.18;84.48;100279.31;5092006;28;20394;-80
2021/11/22 01:20:35;;;;;;;23.30;17.63;;;;;;;6.19;85.10;100278.28;5075611;28;20421;-80
2021/11/22 01:23:08;;;;;;;22.47;17.23;;;;;;;6.20;84.64;100279.91;5092717;28;20512;-80
2021/11/22 01:25:34;;;;;;;19.27;15.45;;;;;;;6.22;85.38;100291.31;5093437;28;20409;-80
2021/11/22 01:28:00;;;;;;;19.42;15.70;;;;;;;6.16;85.59;100295.69;5093338;28;20386;-81
2021/11/22 01:30:25;;;;;;;22.55;16.30;;;;;;;6.18;85.82;100292.78;5092680;28;20413;-81
2021/11/22 01:32:51;;;;;;;17.47;14.67;;;;;;;6.19;85.10;100297.91;5090463;28;20409;-80
2021/11/22 01:35:17;;;;;;;18.67;13.90;;;;;;;6.21;85.29;100297.72;5075164;28;20390;-80
2021/11/22 01:37:43;;;;;;;18.95;14.85;;;;;;;6.22;85.20;100294.00;5092814;28;20466;-80
2021/11/22 01:40:10;;;;;;;19.40;15.60;;;;;;;6.18;85.75;100295.47;5091937;28;20427;-80
2021/11/22 01:42:37;;;;;;;19.88;15.43;;;;;;;6.14;85.32;100303.16;5086016;28;20439;-80
2021/11/22 01:45:08;;;;;;;19.23;14.55;;;;;;;6.12;85.62;100297.19;5084814;28;20397;-80
2021/11/22 01:47:33;;;;;;;21.08;14.65;;;;;;;6.14;86.06;100302.31;5089786;28;20447;-80
2021/11/22 01:49:58;;;;;;;16.77;14.02;;;;;;;6.15;86.03;100298.59;5092984;28;20414;-80
2021/11/22 01:52:24;;;;;;;22.37;15.77;;;;;;;6.18;85.67;100301.69;5092275;28;20822;-80
2021/11/22 01:54:49;;;;;;;24.53;18.17;;;;;;;6.18;85.79;100300.84;5091743;28;20398;-80
2021/11/22 01:57:17;;;;;;;26.63;19.23;;;;;;;6.12;86.03;100301.72;5073736;28;20402;-80
2021/11/22 01:59:42;;;;;;;28.17;19.90;;;;;;;6.07;86.38;100285.41;5092597;28;20403;-80
2021/11/22 02:02:09;;;;;;;24.00;19.02;;;;;;;6.06;86.10;100289.16;5088222;28;20812;-80
2021/11/22 02:04:34;;;;;;;29.23;19.75;;;;;;;6.05;86.55;100291.03;5090770;28;20406;-80
2021/11/22 02:06:59;;;;;;;26.87;18.33;;;;;;;6.08;86.80;100289.75;5092406;28;20745;-80
2021/11/22 02:09:25;;;;;;;23.77;17.33;;;;;;;6.07;86.76;100291.63;5074455;28;20406;-80
2021/11/22 02:11:50;;;;;;;27.50;18.00;;;;;;;6.11;86.68;100292.00;5073115;28;20536;-80
2021/11/22 02:14:15;;;;;;;22.63;17.23;;;;;;;6.15;86.29;100307.50;5092656;28;20386;-80
2021/11/22 02:16:41;;;;;;;25.70;18.30;;;;;;;6.09;86.24;100304.88;5090412;28;20490;-80
2021/11/22 02:19:06;;;;;;;22.07;17.43;;;;;;;6.05;86.60;100307.16;5074352;28;20394;-80
2021/11/22 02:21:32;;;;;;;21.77;17.17;;;;;;;6.03;86.46;100314.63;5091990;28;20953;-80
2021/11/22 02:23:58;;;;;;;22.00;16.87;;;;;;;6.10;86.70;100306.50;5073476;28;20496;-80
2021/11/22 02:26:23;;;;;;;20.98;16.30;;;;;;;6.15;86.04;100315.56;5092041;28;20394;-80
2021/11/22 02:28:48;;;;;;;22.60;16.55;;;;;;;6.14;86.31;100318.47;5091767;28;20406;-80
2021/11/22 02:31:14;;;;;;;22.50;15.77;;;;;;;6.15;86.17;100314.75;5088671;28;20410;-80
2021/11/22 02:33:39;;;;;;;20.20;15.93;;;;;;;6.17;86.45;100326.09;5092327;28;20398;-80
2021/11/22 02:36:05;;;;;;;21.70;15.93;;;;;;;6.14;86.13;100326.53;5092257;28;20386;-80
2021/11/22 02:38:36;;;;;;;22.55;16.55;;;;;;;6.13;86.24;100322.19;5090879;28;20401;-80
2021/11/22 02:41:05;;;;;;;23.25;16.00;;;;;;;6.11;86.43;100324.28;5073160;28;20888;-80
2021/11/22 02:43:35;;;;;;;21.40;15.50;;;;;;;6.10;86.30;100320.78;5090376;28;20423;-80
2021/11/22 02:46:00;;;;;;;20.52;15.45;;;;;;;6.05;86.92;100327.84;5091651;28;20417;-79
2021/11/22 02:48:26;;;;;;;19.73;15.27;;;;;;;6.08;86.71;100328.25;5073664;28;20398;-80
2021/11/22 02:50:52;;;;;;;18.10;15.30;;;;;;;6.09;86.64;100331.78;5091266;28;20899;-80
2021/11/22 02:53:17;;;;;;;20.55;15.32;;;;;;;6.09;86.58;100329.88;5092152;28;20413;-80
2021/11/22 02:55:43;;;;;;;18.50;15.25;;;;;;;6.08;86.62;100330.94;5090719;28;20776;-80
2021/11/22 02:58:08;;;;;;;19.97;15.77;;;;;;;6.07;86.90;100337.34;5085346;28;20499;-80
2021/11/22 03:00:36;;;;;;;18.90;15.30;;;;;;;6.10;86.93;100333.41;5090207;28;20801;-80
2021/11/22 03:03:02;;;;;;;19.27;14.65;;;;;;;6.12;86.86;100332.16;5091999;28;20721;-80
2021/11/22 03:05:28;;;;;;;18.05;14.30;;;;;;;6.11;86.42;100338.56;5091781;28;20896;-80
2021/11/22 03:07:55;;;;;;;18.23;15.40;;;;;;;6.09;86.44;100337.16;5072294;28;20390;-80
2021/11/22 03:10:23;;;;;;;16.38;13.27;;;;;;;6.06;86.48;100342.97;5090672;28;20419;-80
2021/11/22 03:12:49;;;;;;;17.52;14.15;;;;;;;6.11;86.66;100343.94;5090514;28;20799;-80
2021/11/22 03:15:17;;;;;;;15.73;12.27;;;;;;;6.13;86.57;100358.00;5091323;28;20394;-80
2021/11/22 03:17:43;;;;;;;12.35;10.32;;;;;;;6.17;86.77;100355.69;5091671;28;20386;-81
2021/11/22 03:20:12;;;;;;;10.50;9.40;;;;;;;6.18;86.17;100355.50;5088508;28;20452;-80
2021/11/22 03:22:38;;;;;;;12.05;9.98;;;;;;;6.18;86.11;100351.97;5083756;28;20387;-80
2021/11/22 03:25:07;;;;;;;13.02;10.30;;;;;;;6.11;86.42;100357.41;5091021;28;20413;-80
2021/11/22 03:27:32;;;;;;;14.27;10.90;;;;;;;6.09;86.86;100356.78;5082754;28;20413;-80
2021/11/22 03:29:58;;;;;;;13.75;10.73;;;;;;;6.07;86.66;100355.34;5091223;28;20414;-80
2021/11/22 03:32:23;;;;;;;13.90;11.15;;;;;;;6.07;86.56;100355.34;5072533;28;20463;-80
2021/11/22 03:34:49;;;;;;;14.10;11.02;;;;;;;6.05;86.49;100352.91;5073351;28;20474;-80
2021/11/22 03:37:15;;;;;;;16.23;11.60;;;;;;;6.05;87.23;100358.28;5071491;28;20429;-80
2021/11/22 03:39:45;;;;;;;14.90;11.18;;;;;;;6.01;87.06;100359.75;5091093;28;20795;-80
2021/11/22 03:42:15;;;;;;;13.35;10.82;;;;;;;5.98;87.59;100362.03;5092343;28;20409;-80
2021/11/22 03:44:40;;;;;;;13.07;10.27;;;;;;;6.02;87.57;100360.59;5095485;28;20393;-80
2021/11/22 03:47:06;;;;;;;12.27;10.33;;;;;;;6.05;87.32;100362.84;5095221;28;20394;-80
2021/11/22 03:49:33;;;;;;;12.57;9.63;;;;;;;6.03;87.89;100363.03;5076634;28;20406;-81
2021/11/22 03:51:59;;;;;;;13.15;10.07;;;;;;;6.07;87.74;100371.50;5094339;28;20394;-80
2021/11/22 03:54:24;;;;;;;14.80;10.45;;;;;;;6.08;87.75;100376.69;5094657;28;20396;-80
2021/11/22 03:56:50;;;;;;;12.25;9.70;;;;;;;6.07;87.69;100372.31;5075755;28;20427;-80
2021/11/22 03:59:15;;;;;;;10.93;9.27;;;;;;;6.07;87.86;100374.19;5095077;28;20461;-80
2021/11/22 04:01:40;;;;;;;11.83;9.37;;;;;;;6.05;88.43;100381.66;5094199;28;20412;-80
2021/11/22 04:04:06;;;;;;;11.87;9.23;;;;;;;6.05;87.72;100381.66;5093626;28;20401;-80
2021/11/22 04:06:32;;;;;;;11.40;9.23;;;;;;;6.07;88.08;100384.94;5094233;28;20398;-80
2021/11/22 04:08:57;;;;;;;11.13;9.00;;;;;;;6.06;87.70;100386.81;5088524;28;20415;-80
2021/11/22 04:11:23;;;;;;;11.30;9.23;;;;;;;6.09;87.64;100396.34;5092513;28;20413;-80
2021/11/22 04:13:48;;;;;;;11.90;9.20;;;;;;;6.14;87.96;100397.31;5087904;28;20428;-80
2021/11/22 04:16:14;;;;;;;12.55;9.30;;;;;;;6.18;87.45;100397.72;5068873;28;20391;-81
2021/11/22 04:18:42;;;;;;;10.63;8.27;;;;;;;6.13;87.25;100394.84;5087807;28;20382;-80
2021/11/22 04:21:08;;;;;;;11.90;9.18;;;;;;;6.13;87.22;100401.03;5093824;28;20429;-83
2021/11/22 04:23:33;;;;;;;11.40;9.30;;;;;;;6.14;87.46;100409.94;5075429;28;20940;-84
2021/11/22 04:25:58;;;;;;;12.50;8.93;;;;;;;6.14;87.45;100412.63;5091704;28;20496;-83
2021/11/22 04:28:24;;;;;;;10.50;8.17;;;;;;;6.10;87.83;100408.72;5093754;28;20606;-83
2021/11/22 04:30:49;;;;;;;11.40;8.67;;;;;;;6.14;87.72;100415.31;5093439;28;20414;-83
2021/11/22 04:33:15;;;;;;;9.70;8.20;;;;;;;6.14;87.67;100412.63;5094008;28;20861;-83
2021/11/22 04:35:40;;;;;;;11.23;8.63;;;;;;;6.13;87.80;100425.25;5093746;28;20413;-83
2021/11/22 04:38:06;;;;;;;9.50;8.20;;;;;;;6.16;87.65;100424.00;5094209;28;20418;-83
2021/11/22 04:40:32;;;;;;;9.80;8.68;;;;;;;6.19;87.44;100416.31;5094254;28;20412;-83
2021/11/22 04:42:57;;;;;;;10.07;8.87;;;;;;;6.19;87.77;100427.09;5075523;28;20401;-83
2021/11/22 04:45:29;;;;;;;9.13;8.23;;;;;;;6.18;87.34;100422.75;5094148;28;20786;-83
2021/11/22 04:47:57;;;;;;;11.65;8.80;;;;;;;6.21;87.31;100437.63;5093660;28;20417;-83
2021/11/22 04:50:23;;;;;;;11.93;8.63;;;;;;;6.20;87.54;100436.81;5074688;28;20425;-83
2021/11/22 04:52:50;;;;;;;15.87;12.97;;;;;;;6.24;87.63;100440.72;5074325;28;20431;-83
2021/11/22 04:55:17;;;;;;;11.32;9.23;;;;;;;6.24;87.51;100435.34;5093172;28;20413;-83
2021/11/22 04:57:42;;;;;;;11.20;8.85;;;;;;;6.23;87.17;100449.00;5075299;28;20452;-83
2021/11/22 05:00:12;;;;;;;14.10;8.93;;;;;;;6.25;87.25;100445.06;5092094;28;20397;-83
2021/11/22 05:02:39;;;;;;;10.55;8.40;;;;;;;6.28;87.33;100446.50;5092265;28;20868;-84
2021/11/22 05:05:09;;;;;;;11.27;8.38;;;;;;;6.32;87.39;100445.03;5092686;28;20397;-84
2021/11/22 05:07:35;;;;;;;9.93;8.43;;;;;;;6.38;87.00;100448.72;5088747;28;20405;-84
2021/11/22 05:10:00;;;;;;;9.80;8.63;;;;;;;6.36;86.51;100450.78;5090955;28;20490;-83
2021/11/22 05:12:26;;;;;;;11.33;9.63;;;;;;;6.34;87.01;100448.31;5089867;28;20425;-83
2021/11/22 05:14:51;;;;;;;11.97;9.67;;;;;;;6.31;87.34;100451.44;5091477;28;20430;-83
2021/11/22 05:17:17;;;;;;;13.40;10.70;;;;;;;6.31;86.85;100458.69;5093679;28;20398;-83
2021/11/22 05:19:42;;;;;;;14.18;10.88;;;;;;;6.31;86.99;100454.13;5071370;28;20410;-84
2021/11/22 05:22:07;;;;;;;15.27;11.20;;;;;;;6.32;86.96;100463.03;5069262;28;20398;-84
2021/11/22 05:24:33;;;;;;;14.90;11.03;;;;;;;6.33;87.26;100461.97;5093342;28;20409;-84
2021/11/22 05:27:00;;;;;;;15.10;11.33;;;;;;;6.28;86.89;100468.03;5090609;28;20930;-84
2021/11/22 05:29:25;;;;;;;14.18;10.48;;;;;;;6.29;87.35;100474.25;5069768;28;20793;-85
2021/11/22 05:31:51;;;;;;;13.77;10.47;;;;;;;6.30;87.05;100474.00;5089864;28;20390;-85
2021/11/22 05:34:47;;;;;;;14.75;11.20;;;;;;;6.28;87.03;100478.78;5091003;28;20398;-83
2021/11/22 05:37:16;;;;;;;13.43;10.27;;;;;;;6.31;87.13;100478.34;5080498;28;21279;-83
2021/11/22 05:39:46;;;;;;;14.68;11.27;;;;;;;6.28;87.08;100486.03;5091122;28;20448;-82
2021/11/22 05:42:11;;;;;;;15.60;10.80;;;;;;;6.26;87.23;100489.75;5091091;28;20455;-81
2021/11/22 05:44:37;;;;;;;13.15;10.05;;;;;;;6.23;87.30;100484.81;5091672;28;20401;-84
2021/11/22 05:47:05;;;;;;;16.60;12.10;;;;;;;6.22;87.18;100482.34;5092312;28;20413;-81
2021/11/22 05:49:33;;;;;;;15.40;11.10;;;;;;;6.23;87.21;100486.69;5089736;28;20413;-84
2021/11/22 05:51:59;;;;;;;12.77;10.55;;;;;;;6.20;86.90;100490.63;5091881;28;20390;-84
2021/11/22 05:54:26;;;;;;;12.80;10.43;;;;;;;6.23;87.67;100494.75;5086794;28;20393;-84
2021/11/22 05:57:23;;;;;;;14.63;12.43;;;;;;;6.24;87.37;100488.34;5092719;28;20394;-84
2021/11/22 05:59:49;;;;;;;16.08;11.13;;;;;;;6.23;87.83;100494.75;5090932;28;20878;-83
2021/11/22 06:02:15;;;;;;;41.15;21.50;;;;;;;6.24;88.11;100493.72;5091453;28;20634;-83
2021/11/22 06:04:40;;;;;;;14.57;11.23;;;;;;;6.22;87.85;100491.22;5088691;28;20424;-83
2021/11/22 06:07:06;;;;;;;14.73;12.20;;;;;;;6.16;88.23;100505.53;5090850;28;20394;-83
2021/11/22 06:09:31;;;;;;;14.23;10.17;;;;;;;6.14;87.96;100501.44;5092587;28;20902;-83
2021/11/22 06:11:56;;;;;;;14.05;10.63;;;;;;;6.19;88.50;100507.81;5070487;28;20402;-83
2021/11/22 06:14:22;;;;;;;21.33;14.27;;;;;;;6.23;88.08;100517.09;5072124;28;20410;-83
2021/11/22 06:16:47;;;;;;;22.17;14.20;;;;;;;6.23;88.48;100519.78;5074447;28;20486;-84
2021/11/22 06:19:13;;;;;;;13.15;10.85;;;;;;;6.24;87.94;100523.31;5092312;28;20502;-83
2021/11/22 06:21:38;;;;;;;12.02;9.77;;;;;;;6.21;88.13;100516.50;5071544;28;20514;-83
2021/11/22 06:24:05;;;;;;;11.53;9.20;;;;;;;6.19;87.91;100523.16;5092250;28;20394;-83
2021/11/22 06:26:32;;;;;;;12.40;10.43;;;;;;;6.23;88.44;100527.03;5089631;28;20413;-83
2021/11/22 06:28:57;;;;;;;13.50;10.27;;;;;;;6.25;88.02;100523.13;5090951;28;20803;-83
2021/11/22 06:31:22;;;;;;;15.47;10.20;;;;;;;6.31;87.75;100531.34;5091789;28;20398;-83
2021/11/22 06:33:48;;;;;;;14.77;11.10;;;;;;;6.29;88.42;100530.75;5091561;28;20877;-84
2021/11/22 06:36:13;;;;;;;14.73;10.63;;;;;;;6.28;87.43;100537.16;5073595;28;20387;-83
2021/11/22 06:38:38;;;;;;;16.50;11.40;;;;;;;6.22;88.39;100541.56;5091982;28;20386;-83
2021/11/22 06:41:04;;;;;;;15.83;12.03;;;;;;;6.22;88.55;100549.63;5090871;28;20803;-84
2021/11/22 06:43:30;;;;;;;14.50;11.18;;;;;;;6.26;87.93;100550.81;5091334;28;20467;-84
2021/11/22 06:45:55;;;;;;;15.40;11.30;;;;;;;6.29;88.61;100553.09;5091460;28;20465;-82
2021/11/22 06:48:20;;;;;;;16.17;12.23;;;;;;;6.31;87.99;100556.41;5091979;28;20763;-83
2021/11/22 06:50:46;;;;;;;17.23;12.30;;;;;;;6.34;88.07;100564.06;5091223;28;20838;-84
2021/11/22 06:53:11;;;;;;;19.13;12.55;;;;;;;6.36;88.25;100556.56;5072604;28;20394;-85
2021/11/22 06:55:36;;;;;;;19.70;13.07;;;;;;;6.35;88.00;100563.03;5087007;28;20415;-83
2021/11/22 06:58:02;;;;;;;23.40;15.10;;;;;;;6.30;88.62;100570.91;5091418;28;20849;-84
2021/11/22 07:00:27;;;;;;;22.73;15.30;;;;;;;6.33;88.69;100578.53;5091754;28;20790;-84
2021/11/22 07:02:54;;;;;;;26.83;15.68;;;;;;;6.38;88.77;100575.22;5091037;28;20409;-86
2021/11/22 07:05:21;;;;;;;26.70;16.48;;;;;;;6.40;88.77;100581.19;5072594;28;20402;-82
2021/11/22 07:07:48;;;;;;;26.30;16.43;;;;;;;6.39;88.59;100576.88;5091549;28;20806;-82
2021/11/22 07:10:14;;;;;;;26.30;16.52;;;;;;;6.38;88.72;100591.38;5091060;28;20413;-83
2021/11/22 07:12:41;;;;;;;28.95;16.90;;;;;;;6.35;88.88;100587.25;5072150;28;20482;-84
2021/11/22 07:15:07;;;;;;;27.88;16.60;;;;;;;6.39;89.33;100601.91;5072114;28;20397;-84
2021/11/22 07:17:33;;;;;;;29.40;18.25;;;;;;;6.42;88.95;100606.84;5072508;28;20398;-85
2021/11/22 07:19:58;;;;;;;30.47;17.50;;;;;;;6.43;88.61;100610.38;5091430;28;20390;-82
2021/11/22 07:22:24;;;;;;;31.30;18.13;;;;;;;6.45;88.89;100609.16;5072976;28;20409;-82
2021/11/22 07:28:32;;;;;;;31.63;18.13;;;;;;;6.53;88.84;100616.97;5087357;28;20402;-84
2021/11/22 07:30:58;;;;;;;31.87;18.40;;;;;;;6.54;89.07;100623.19;5089735;28;20413;-83
2021/11/22 07:33:23;;;;;;;34.17;19.73;;;;;;;6.56;88.70;100629.16;5090761;28;20443;-83
2021/11/22 07:35:49;;;;;;;37.53;20.27;;;;;;;6.60;88.71;100633.91;5090425;28;20393;-83
2021/11/22 07:38:14;;;;;;;37.87;20.00;;;;;;;6.62;88.92;100631.81;5090660;28;20441;-83
2021/11/22 07:40:40;;;;;;;34.58;20.75;;;;;;;6.60;88.88;100642.00;5090133;28;20830;-83
2021/11/22 07:43:06;;;;;;;32.92;20.63;;;;;;;6.60;88.43;100644.69;5085824;28;20822;-83
2021/11/22 07:45:31;;;;;;;37.63;22.45;;;;;;;6.62;88.31;100645.28;5071995;28;20394;-83
2021/11/22 07:47:57;;;;;;;42.93;23.27;;;;;;;6.63;88.41;100646.94;5090272;28;20406;-82
2021/11/22 07:51:07;;;;;;;40.20;25.00;;;;;;;6.65;88.48;100652.13;5065897;28;20796;-83
2021/11/22 07:53:33;;;;;;;41.72;23.52;;;;;;;6.64;88.74;100650.47;5067427;28;20862;-83
2021/11/22 07:55:58;;;;;;;39.23;22.77;;;;;;;6.66;89.22;100664.53;5085186;28;20488;-81
2021/11/22 07:58:24;;;;;;;39.28;22.17;;;;;;;6.68;88.55;100666.00;5083852;28;20769;-82
2021/11/22 08:00:50;;;;;;;32.70;19.98;;;;;;;6.72;88.62;100669.06;5091004;28;20390;-82
2021/11/22 08:03:16;;;;;;;32.90;20.13;;;;;;;6.71;88.59;100668.25;5088960;28;20399;-82
2021/11/22 08:09:27;;;;;;;36.70;19.92;;;;;;;6.71;89.09;100672.81;5022854;28;20430;-82
2021/11/22 08:13:24;;;;;;;;;;;;;;;;;;;;;
2021/11/22 08:15:20;;;;;;;25.95;15.80;;;;;;;6.73;88.52;100695.78;5021813;28;20917;-83
2021/11/22 08:20:33;;;;;;;24.90;14.85;;;;;;;6.84;87.94;100680.84;5073016;28;20401;-82
2021/11/22 08:22:59;;;;;;;29.83;15.90;;;;;;;6.90;88.11;100698.81;5089626;28;20394;-82
2021/11/22 08:25:30;;;;;;;27.00;14.27;;;;;;;6.90;87.38;100692.59;5091513;28;20451;-82
2021/11/22 08:27:57;;;;;;;21.58;13.30;;;;;;;6.94;87.33;100694.66;5094328;28;20390;-82
2021/11/22 08:30:24;;;;;;;22.55;13.18;;;;;;;6.98;87.39;100697.75;5093981;28;20418;-82
2021/11/22 08:32:51;;;;;;;20.17;12.30;;;;;;;6.99;86.99;100702.91;5093019;28;20382;-83
2021/11/22 08:35:19;;;;;;;22.47;12.37;;;;;;;6.99;86.80;100711.00;5084226;28;20734;-82
2021/11/22 08:37:45;;;;;;;23.13;11.70;;;;;;;7.04;86.91;100710.38;5090115;28;20440;-82
2021/11/22 08:40:16;;;;;;;21.20;11.50;;;;;;;7.09;86.84;100719.44;5091857;28;20471;-82
2021/11/22 08:42:41;;;;;;;20.83;11.63;;;;;;;7.10;86.36;100722.97;5094145;28;20401;-83
2021/11/22 08:45:08;;;;;;;19.67;11.38;;;;;;;7.14;86.66;100725.03;5094235;28;20386;-83
2021/11/22 08:47:33;;;;;;;21.35;12.00;;;;;;;7.20;86.27;100731.41;5094194;28;20388;-83
2021/11/22 08:50:02;;;;;;;21.00;11.47;;;;;;;7.21;86.29;100736.56;5094157;28;20582;-82
2021/11/22 08:52:27;;;;;;;20.90;11.10;;;;;;;7.23;85.89;100739.91;5089968;28;20445;-82
2021/11/22 08:54:53;;;;;;;18.80;11.20;;;;;;;7.19;85.71;100745.94;5094127;28;20418;-82
2021/11/22 08:57:20;;;;;;;21.80;10.63;;;;;;;7.17;85.63;100748.84;5093962;28;20811;-82
2021/11/22 08:59:45;;;;;;;17.25;10.82;;;;;;;7.17;85.95;100750.72;5093438;28;20888;-82
2021/11/22 09:02:11;;;;;;;22.10;11.03;;;;;;;7.16;85.61;100749.06;5093885;28;20440;-82
2021/11/22 09:04:37;;;;;;;21.60;12.00;;;;;;;7.07;86.09;100755.75;5075389;28;20430;-83
2021/11/22 09:07:02;;;;;;;21.73;12.35;;;;;;;7.07;86.24;100745.78;5072256;28;20406;-83
2021/11/22 09:09:28;;;;;;;18.90;12.13;;;;;;;7.11;86.02;100757.78;5091708;28;20815;-83
2021/11/22 09:11:53;;;;;;;18.97;11.17;;;;;;;7.12;85.55;100759.44;5073596;28;20404;-82
2021/11/22 09:14:19;;;;;;;19.33;11.23;;;;;;;7.18;85.59;100763.97;5092438;28;20378;-83
2021/11/22 09:16:44;;;;;;;17.30;9.95;;;;;;;7.24;85.59;100757.69;5093309;28;20405;-83
2021/11/22 09:19:10;;;;;;;19.27;10.67;;;;;;;7.23;85.06;100769.56;5093585;28;20410;-83
2021/11/22 09:21:36;;;;;;;17.88;9.93;;;;;;;7.23;85.37;100761.47;5090840;28;20413;-83
2021/11/22 09:24:04;;;;;;;21.08;10.95;;;;;;;7.29;84.75;100768.69;5093088;28;20390;-82
2021/11/22 09:26:31;;;;;;;20.30;10.83;;;;;;;7.39;84.93;100775.47;5090886;28;20425;-83
2021/11/22 09:28:57;;;;;;;18.83;10.10;;;;;;;7.48;84.62;100776.84;5093247;28;20937;-83
2021/11/22 09:31:22;;;;;;;18.52;9.52;;;;;;;7.49;84.15;100784.75;5093241;28;20427;-83
2021/11/22 09:33:50;;;;;;;20.90;9.93;;;;;;;7.58;84.23;100791.53;5074963;28;20397;-83
2021/11/22 09:36:16;;;;;;;17.05;9.23;;;;;;;7.62;83.27;100792.75;5090109;28;20413;-83
2021/11/22 09:38:42;;;;;;;13.57;9.02;;;;;;;7.60;83.82;100796.72;5093180;28;20378;-83
2021/11/22 09:42:19;;;;;;;22.33;9.90;;;;;;;7.56;83.36;100806.28;5092919;28;20393;-83
2021/11/22 09:44:45;;;;;;;15.30;8.93;;;;;;;7.52;83.57;100807.75;5057132;28;20497;-83
2021/11/22 09:47:10;;;;;;;15.23;9.70;;;;;;;7.55;83.27;100807.31;5074328;28;20465;-83
2021/11/22 09:49:35;;;;;;;15.40;9.02;;;;;;;7.59;83.67;100806.69;5092466;28;20484;-83
2021/11/22 09:52:01;;;;;;;14.17;8.47;;;;;;;7.64;83.64;100801.44;5091173;28;20734;-83
2021/11/22 09:54:26;;;;;;;14.20;8.37;;;;;;;7.75;82.99;100808.84;5069675;28;20485;-83
2021/11/22 09:56:52;;;;;;;14.55;8.73;;;;;;;7.80;82.60;100813.59;5092610;28;20390;-85
2021/11/22 09:59:20;;;;;;;10.95;8.52;;;;;;;7.77;82.22;100806.75;5101260;28;20413;-83
2021/11/22 10:01:52;;;;;;;14.48;8.27;;;;;;;7.82;82.30;100808.81;5102893;28;20443;-84
2021/11/22 10:04:19;;;;;;;15.30;8.27;;;;;;;7.81;82.37;100815.25;5078943;28;20422;-83
2021/11/22 10:06:52;;;;;;;16.85;8.80;;;;;;;7.68;82.55;100818.03;5095098;28;20442;-83
2021/11/22 10:09:45;;;;;;;12.50;7.90;;;;;;;7.63;83.30;100807.06;5079218;28;20451;-83
2021/11/22 10:12:22;;;;;;;15.43;9.07;;;;;;;7.63;83.30;100817.88;5092451;28;20398;-83
2021/11/22 10:14:54;;;;;;;12.63;7.72;;;;;;;7.60;83.29;100815.59;5092211;28;20748;-85
2021/11/22 10:17:34;;;;;;;14.77;7.65;;;;;;;7.74;83.09;100822.53;5091987;28;20898;-84
2021/11/22 10:20:06;;;;;;;15.57;7.90;;;;;;;7.86;82.95;100820.00;5092128;28;20398;-83
2021/11/22 10:22:40;;;;;;;16.53;7.57;;;;;;;7.87;82.55;100822.44;5089504;28;20466;-83
2021/11/22 10:25:30;;;;;;;14.00;7.72;;;;;;;7.99;82.37;100825.28;5076921;28;20404;-84
2021/11/22 10:28:09;;;;;;;14.05;7.88;;;;;;;8.11;82.08;100823.53;5087274;28;20736;-83
2021/11/22 10:30:39;;;;;;;11.10;7.55;;;;;;;8.14;81.92;100821.22;5087211;28;20402;-84
2021/11/22 10:33:06;;;;;;;11.70;6.68;;;;;;;8.14;81.80;100826.63;5069742;28;20409;-84
2021/11/22 10:35:34;;;;;;;11.27;6.30;;;;;;;8.09;80.96;100823.75;5072043;28;20386;-84
2021/11/22 10:38:12;;;;;;;12.48;7.38;;;;;;;8.03;80.80;100827.34;5095175;28;21227;-83
2021/11/22 10:40:41;;;;;;;11.98;6.55;;;;;;;8.04;81.35;100828.97;5071149;28;20393;-84
2021/11/22 10:43:06;;;;;;;13.00;6.97;;;;;;;8.05;81.25;100827.94;5098015;28;20392;-83
2021/11/22 10:45:39;;;;;;;12.43;7.10;;;;;;;8.18;80.76;100825.13;5080158;28;20482;-83
2021/11/22 10:48:11;;;;;;;13.70;6.43;;;;;;;8.39;80.56;100828.53;5091631;28;20413;-82
2021/11/22 10:50:37;;;;;;;9.57;6.00;;;;;;;8.57;80.21;100842.06;5089123;28;20419;-83
2021/11/22 10:53:04;;;;;;;10.25;6.03;;;;;;;8.62;79.81;100844.94;5091765;28;20394;-83
2021/11/22 10:55:47;;;;;;;11.52;6.13;;;;;;;8.48;79.64;100838.00;5091544;28;20425;-83
2021/11/22 10:58:32;;;;;;;11.32;5.95;;;;;;;8.53;79.06;100830.06;5073601;28;20405;-84
2021/11/22 11:00:58;;;;;;;9.00;5.85;;;;;;;8.54;78.77;100821.72;5078783;28;20761;-84
2021/11/22 11:03:27;;;;;;;9.23;5.07;;;;;;;8.61;78.12;100836.00;5091304;28;20394;-84
2021/11/22 11:05:59;;;;;;;6.13;4.60;;;;;;;8.69;77.46;100838.41;5090107;28;20469;-83
2021/11/22 11:08:29;;;;;;;14.40;4.72;;;;;;;8.84;76.80;100840.75;5091644;28;21368;-84
2021/11/22 11:11:14;;;;;;;7.43;4.68;;;;;;;8.85;76.81;100842.41;5091622;28;20410;-84
2021/11/22 11:13:47;;;;;;;13.30;5.85;;;;;;;8.85;76.68;100840.53;5073298;28;20745;-83
2021/11/22 11:16:16;;;;;;;8.10;4.95;;;;;;;9.06;76.38;100847.34;5073378;28;20432;-83
2021/11/22 11:19:04;;;;;;;7.63;5.07;;;;;;;9.01;76.11;100851.81;5073081;28;20398;-83
2021/11/22 11:21:43;;;;;;;12.43;6.50;;;;;;;8.85;76.10;100853.22;5090369;28;20493;-83
2021/11/22 11:24:09;;;;;;;7.20;4.70;;;;;;;8.58;76.75;100863.47;5091596;28;20464;-83
2021/11/22 11:26:36;;;;;;;9.87;5.07;;;;;;;8.44;77.51;100850.28;5072860;28;20414;-83
2021/11/22 11:29:03;;;;;;;11.93;5.40;;;;;;;8.28;78.10;100857.91;5089195;28;20442;-83
2021/11/22 11:31:28;;;;;;;8.77;5.03;;;;;;;8.17;78.19;100858.56;5073002;28;21044;-83
2021/11/22 11:33:55;;;;;;;12.03;5.43;;;;;;;8.15;78.95;100862.53;5091397;28;20382;-83